Time;durP1;ratioP1;P1;durP2;ratioP2;P2;SDS_P1;SDS_P2;PMS_P1;PMS_P2;Temp;Humidity;BMP_temperature;BMP_pressure;BME280_temperature;BME280_humidity;BME280_pressure;Samples;Min_cycle;Max_cycle;Signal;HPM_P1;HPM_P2
2022/11/19 00:00:54;;;;;;;8.10;3.40;;;;;;;2.63;70.56;99472.77;1777766;79;21029;-48
2022/11/19 00:03:23;;;;;;;7.87;3.83;;;;;;;2.60;70.62;99479.45;1772465;79;21183;-49
2022/11/19 00:05:49;;;;;;;7.95;4.15;;;;;;;2.58;70.67;99472.22;1772401;79;21035;-48
2022/11/19 00:08:18;;;;;;;8.00;3.87;;;;;;;2.59;70.55;99460.91;1778186;79;21066;-48
2022/11/19 00:10:45;;;;;;;8.58;4.20;;;;;;;2.64;70.43;99456.27;1774129;79;21516;-48
2022/11/19 00:13:13;;;;;;;6.65;3.30;;;;;;;2.72;70.43;99459.23;1768937;80;21050;-48
2022/11/19 00:15:41;;;;;;;7.67;3.33;;;;;;;2.78;70.33;99445.02;1777373;80;21501;-48
2022/11/19 00:18:08;;;;;;;11.30;7.03;;;;;;;2.83;70.51;99441.66;1777467;80;20998;-48
2022/11/19 00:20:35;;;;;;;8.08;3.35;;;;;;;2.85;70.56;99440.27;1766408;79;21085;-48
2022/11/19 00:23:02;;;;;;;6.83;3.27;;;;;;;2.87;70.67;99434.50;1770770;79;21062;-48
2022/11/19 00:25:29;;;;;;;9.45;4.17;;;;;;;2.85;70.52;99425.97;1777180;80;21029;-46
2022/11/19 00:27:57;;;;;;;8.03;3.80;;;;;;;2.79;70.37;99420.23;1776614;79;21062;-47
2022/11/19 00:30:23;;;;;;;8.00;3.60;;;;;;;2.73;70.51;99409.39;1773976;79;21218;-49
2022/11/19 00:32:50;;;;;;;7.95;3.25;;;;;;;2.70;70.67;99397.42;1771442;79;21030;-48
2022/11/19 00:35:17;;;;;;;7.28;3.75;;;;;;;2.69;70.64;99402.27;1770624;79;21066;-49
2022/11/19 00:37:45;;;;;;;7.70;3.62;;;;;;;2.71;70.53;99390.48;1769022;79;21697;-48
2022/11/19 00:40:13;;;;;;;7.00;3.17;;;;;;;2.77;70.44;99396.12;1777102;80;21731;-48
2022/11/19 00:43:45;;;;;;;6.92;3.77;;;;;;;2.81;70.41;99401.09;1771581;80;21054;-48
2022/11/19 00:45:09;;;;;;;7.58;2.98;;;;;;;2.84;70.42;99395.71;1771998;79;21441;-48
2022/11/19 00:47:37;;;;;;;8.78;6.10;;;;;;;2.86;70.57;99393.40;1762245;79;22036;-48
2022/11/19 00:50:05;;;;;;;7.42;2.65;;;;;;;2.85;70.48;99388.30;1773006;80;21014;-48
2022/11/19 00:52:32;;;;;;;8.18;3.22;;;;;;;2.81;70.38;99388.11;1776524;79;21112;-48
2022/11/19 00:54:58;;;;;;;7.92;3.60;;;;;;;2.78;70.59;99384.78;1765029;80;21013;-48
2022/11/19 00:57:25;;;;;;;8.80;3.60;;;;;;;2.76;70.68;99385.35;1770779;79;21034;-48
2022/11/19 00:59:51;;;;;;;5.90;2.85;;;;;;;2.73;70.66;99379.05;1772811;79;21087;-47
2022/11/19 01:02:18;;;;;;;8.28;3.77;;;;;;;2.72;70.63;99373.95;1773045;80;21097;-48
2022/11/19 01:04:44;;;;;;;7.28;3.52;;;;;;;2.77;70.43;99371.44;1771486;79;21110;-48
2022/11/19 01:07:12;;;;;;;8.85;3.47;;;;;;;2.81;70.27;99360.83;1768674;79;22546;-48
2022/11/19 01:09:39;;;;;;;7.95;3.30;;;;;;;2.86;70.44;99363.96;1776474;79;21007;-49
2022/11/19 01:12:06;;;;;;;9.40;4.42;;;;;;;2.93;70.60;99362.66;1779853;80;21019;-48
2022/11/19 01:14:33;;;;;;;8.05;3.90;;;;;;;2.96;70.51;99365.06;1775540;79;21054;-47
2022/11/19 01:17:01;;;;;;;8.53;4.50;;;;;;;2.95;70.46;99355.59;1772233;80;21228;-47
2022/11/19 01:19:29;;;;;;;8.85;3.98;;;;;;;2.94;70.48;99355.20;1768273;80;21057;-47
2022/11/19 01:21:56;;;;;;;8.15;4.58;;;;;;;2.93;70.48;99350.96;1766773;80;21050;-47
2022/11/19 01:24:23;;;;;;;8.83;4.37;;;;;;;2.90;70.43;99345.48;1762316;80;21046;-48
2022/11/19 01:26:49;;;;;;;8.95;4.00;;;;;;;2.86;70.40;99344.48;1763913;80;21027;-47
2022/11/19 01:29:18;;;;;;;7.35;4.17;;;;;;;2.82;70.49;99344.32;1763664;80;21263;-47
2022/11/19 01:31:45;;;;;;;7.65;3.70;;;;;;;2.83;70.41;99342.92;1769039;79;20988;-47
2022/11/19 01:34:11;;;;;;;12.82;7.22;;;;;;;2.88;70.21;99336.97;1766927;79;21137;-47
2022/11/19 01:36:38;;;;;;;6.97;4.20;;;;;;;2.92;70.13;99341.02;1752361;80;21085;-48
2022/11/19 01:39:05;;;;;;;11.48;8.13;;;;;;;2.99;70.21;99333.65;1766333;80;21045;-47
2022/11/19 01:41:32;;;;;;;9.65;4.03;;;;;;;2.99;70.33;99334.95;1764443;80;21244;-48
2022/11/19 01:44:03;;;;;;;9.03;4.78;;;;;;;2.97;70.38;99327.73;1766411;80;21015;-47
2022/11/19 01:46:34;;;;;;;10.20;5.03;;;;;;;2.94;70.37;99317.53;1718461;82;20974;-49
2022/11/19 01:49:13;;;;;;;9.55;4.85;;;;;;;2.90;70.41;99314.78;1705034;82;21006;-47
2022/11/19 01:51:59;;;;;;;7.72;4.10;;;;;;;2.86;70.53;99304.20;1671409;84;21090;-46
2022/11/19 01:54:37;;;;;;;7.90;3.83;;;;;;;2.82;70.52;99302.75;1727899;81;21462;-47
2022/11/19 01:57:07;;;;;;;9.85;3.52;;;;;;;2.78;70.62;99304.24;1718958;82;21559;-48
2022/11/19 01:59:34;;;;;;;8.75;4.37;;;;;;;2.83;70.53;99294.03;1693729;84;21021;-48
2022/11/19 02:02:00;;;;;;;6.95;3.40;;;;;;;2.86;70.38;99297.27;1688549;84;21603;-47
2022/11/19 02:04:27;;;;;;;7.67;4.10;;;;;;;2.91;70.43;99285.27;1699257;83;21580;-48
2022/11/19 02:06:55;;;;;;;11.28;8.03;;;;;;;2.97;70.52;99284.85;1701917;82;22753;-47
2022/11/19 02:09:23;;;;;;;6.58;3.27;;;;;;;3.00;70.66;99285.13;1711977;81;21223;-48
2022/11/19 02:11:58;;;;;;;7.22;3.27;;;;;;;2.98;70.55;99282.16;1723520;81;21073;-47
2022/11/19 02:14:35;;;;;;;8.13;4.25;;;;;;;2.94;70.55;99270.76;1692554;82;21053;-47
2022/11/19 02:17:19;;;;;;;8.28;3.77;;;;;;;2.93;70.71;99265.22;1704643;82;21109;-47
2022/11/19 02:20:28;;;;;;;7.37;2.62;;;;;;;2.89;70.79;99263.73;1708219;82;21234;-48
2022/11/19 02:23:20;;;;;;;7.58;3.30;;;;;;;2.86;70.67;99259.59;1703419;83;21077;-48
2022/11/19 02:26:08;;;;;;;8.60;3.67;;;;;;;2.87;70.51;99260.41;1771957;79;21038;-47
2022/11/19 02:28:47;;;;;;;7.58;3.20;;;;;;;2.91;70.50;99255.39;1771643;80;20983;-47
2022/11/19 02:31:21;;;;;;;7.28;2.60;;;;;;;2.95;70.58;99256.84;1764978;80;21046;-47
2022/11/19 02:33:58;;;;;;;7.83;3.17;;;;;;;2.94;70.89;99247.37;1766844;79;21094;-46
2022/11/19 02:36:32;;;;;;;7.20;3.25;;;;;;;2.94;70.88;99251.27;1769409;79;21049;-47
2022/11/19 02:39:11;;;;;;;8.80;3.60;;;;;;;2.90;70.73;99244.63;1763902;79;21485;-47
2022/11/19 02:41:49;;;;;;;6.92;2.87;;;;;;;2.85;70.82;99247.52;1777777;79;21038;-47
2022/11/19 02:47:23;;;;;;;6.05;2.25;;;;;;;2.83;70.96;99251.17;1760950;79;21742;-49
2022/11/19 02:49:52;;;;;;;6.30;2.27;;;;;;;2.84;70.70;99254.11;1774272;80;21078;-47
2022/11/19 02:52:19;;;;;;;4.78;2.15;;;;;;;2.82;70.67;99257.28;1776927;80;21094;-48
2022/11/19 02:54:46;;;;;;;5.65;1.87;;;;;;;2.86;70.78;99262.19;1764374;79;21046;-46
2022/11/19 02:57:12;;;;;;;5.40;2.52;;;;;;;2.92;70.86;99264.36;1773639;79;21082;-47
2022/11/19 03:05:32;;;;;;;5.78;2.00;;;;;;;2.91;70.83;99258.81;1776375;79;21027;-48
2022/11/19 03:07:59;;;;;;;4.60;1.77;;;;;;;2.90;70.83;99253.72;1773761;79;21148;-47
2022/11/19 03:10:39;;;;;;;5.05;2.08;;;;;;;2.85;70.81;99254.48;1770954;79;21089;-47
2022/11/19 03:19:08;;;;;;;6.60;2.35;;;;;;;2.98;70.71;99239.75;1762398;80;21030;-47
2022/11/19 03:21:43;;;;;;;5.33;1.87;;;;;;;3.03;70.82;99237.67;1760899;80;21057;-47
2022/11/19 03:24:17;;;;;;;;;;;;;;;3.08;70.91;99230.87;1764705;80;21023;-47
2022/11/19 03:26:51;;;;;;;5.45;1.75;;;;;;;3.09;70.97;99232.52;1766441;80;21064;-47
2022/11/19 03:29:18;;;;;;;6.13;2.13;;;;;;;3.09;71.05;99228.17;1762295;80;21120;-47
2022/11/19 03:31:48;;;;;;;6.05;2.30;;;;;;;3.05;70.99;99227.18;1760653;80;21080;-47
2022/11/19 03:34:18;;;;;;;6.08;2.37;;;;;;;3.02;70.97;99224.30;1762613;80;21014;-47
2022/11/19 03:36:45;;;;;;;4.83;2.05;;;;;;;2.98;71.11;99226.28;1769363;80;21129;-47
2022/11/19 03:39:15;;;;;;;5.25;2.52;;;;;;;2.98;71.02;99222.86;1764965;80;21124;-48
2022/11/19 03:41:45;;;;;;;6.85;2.50;;;;;;;3.03;70.65;99219.96;1762187;80;21038;-48
2022/11/19 03:44:17;;;;;;;4.37;1.57;;;;;;;3.07;70.70;99218.33;1765766;80;21455;-48
2022/11/19 03:46:44;;;;;;;4.55;1.92;;;;;;;3.11;70.70;99209.41;1769137;80;21078;-48
2022/11/19 03:49:11;;;;;;;4.22;1.72;;;;;;;3.11;71.02;99202.91;1771736;80;21101;-48
2022/11/19 03:51:49;;;;;;;5.00;2.08;;;;;;;3.11;70.90;99199.01;1765340;80;21125;-47
2022/11/19 03:54:16;;;;;;;5.53;1.90;;;;;;;3.06;70.87;99199.79;1759401;80;21132;-47
2022/11/19 03:56:43;;;;;;;4.95;2.47;;;;;;;2.97;71.00;99188.22;1770294;80;21038;-46
2022/11/19 03:59:10;;;;;;;4.85;1.55;;;;;;;2.98;71.00;99178.69;1764052;80;21094;-47
2022/11/19 04:01:38;;;;;;;4.95;1.92;;;;;;;3.01;70.91;99175.03;1761169;80;21039;-48
2022/11/19 04:06:50;;;;;;;5.30;1.82;;;;;;;2.95;70.95;99164.59;1766808;80;21567;-49
2022/11/19 04:09:18;;;;;;;6.67;2.17;;;;;;;2.87;70.92;99144.79;1765496;80;21674;-49
2022/11/19 04:11:46;;;;;;;5.40;1.87;;;;;;;2.77;71.11;99141.98;1762809;80;21018;-48
2022/11/19 04:14:13;;;;;;;4.83;1.95;;;;;;;2.72;71.26;99134.52;1766514;79;21128;-48
2022/11/19 04:16:40;;;;;;;4.12;1.27;;;;;;;2.72;71.43;99137.56;1766513;80;22047;-48
2022/11/19 04:19:07;;;;;;;5.33;1.95;;;;;;;2.74;71.47;99131.79;1763405;80;21412;-48
2022/11/19 04:21:35;;;;;;;5.35;2.08;;;;;;;2.77;71.46;99133.74;1761358;80;21045;-48
2022/11/19 04:24:01;;;;;;;5.85;2.58;;;;;;;2.78;71.44;99147.08;1759885;80;21058;-48
2022/11/19 04:26:28;;;;;;;5.33;2.17;;;;;;;2.76;71.61;99161.12;1761200;80;21034;-48
2022/11/19 04:28:54;;;;;;;4.58;1.95;;;;;;;2.74;71.86;99176.80;1760995;80;21213;-48
2022/11/19 04:31:21;;;;;;;5.55;1.80;;;;;;;2.75;71.88;99177.15;1764399;80;21316;-48
2022/11/19 04:33:48;;;;;;;7.08;1.82;;;;;;;2.73;71.90;99174.30;1756916;80;21046;-48
2022/11/19 04:36:14;;;;;;;5.70;1.85;;;;;;;2.73;71.97;99169.94;1762680;80;21077;-48
2022/11/19 04:38:41;;;;;;;4.37;1.72;;;;;;;2.77;71.83;99166.66;1762692;80;21058;-48
2022/11/19 04:41:07;;;;;;;5.50;2.00;;;;;;;2.85;71.58;99170.05;1764373;80;21236;-48
2022/11/19 04:43:34;;;;;;;6.00;3.37;;;;;;;3.00;71.46;99178.58;1770640;80;21010;-48
2022/11/19 04:46:00;;;;;;;3.83;1.32;;;;;;;3.03;71.38;99180.98;1767516;80;21095;-48
2022/11/19 04:48:27;;;;;;;4.03;1.32;;;;;;;3.04;71.73;99183.92;1761450;80;21054;-48
2022/11/19 04:50:54;;;;;;;3.98;1.62;;;;;;;3.06;71.55;99181.59;1761349;80;21124;-49
2022/11/19 04:53:21;;;;;;;4.12;1.47;;;;;;;3.07;71.47;99185.02;1759405;80;21126;-48
2022/11/19 04:55:47;;;;;;;5.47;1.80;;;;;;;3.06;71.29;99176.40;1767437;80;21050;-48
2022/11/19 04:58:14;;;;;;;4.72;1.47;;;;;;;3.00;71.20;99181.18;1762872;80;21137;-48
2022/11/19 05:00:41;;;;;;;5.50;1.70;;;;;;;2.89;71.16;99184.04;1763572;80;21070;-51
2022/11/19 05:03:08;;;;;;;3.85;1.00;;;;;;;2.94;70.97;99191.50;1762073;80;21101;-49
2022/11/19 05:05:34;;;;;;;4.78;1.45;;;;;;;3.00;71.14;99202.80;1768557;80;21230;-48
2022/11/19 05:08:01;;;;;;;5.00;2.87;;;;;;;3.03;71.33;99197.88;1762647;80;21043;-47
2022/11/19 05:10:28;;;;;;;4.75;1.42;;;;;;;3.06;71.37;99191.99;1765562;80;21046;-47
2022/11/19 05:12:55;;;;;;;4.35;1.77;;;;;;;3.05;71.27;99188.20;1758829;80;22607;-48
2022/11/19 05:15:22;;;;;;;4.05;1.67;;;;;;;3.00;71.30;99183.30;1760037;80;21082;-48
2022/11/19 05:17:48;;;;;;;3.37;1.30;;;;;;;2.90;71.50;99188.76;1770292;79;21227;-47
2022/11/19 05:20:15;;;;;;;5.85;2.10;;;;;;;2.81;71.59;99184.17;1769680;80;21398;-48
2022/11/19 05:22:43;;;;;;;4.70;2.30;;;;;;;2.79;71.49;99189.46;1770450;79;21042;-48
2022/11/19 05:25:11;;;;;;;4.05;1.52;;;;;;;2.81;71.56;99186.77;1769762;79;21437;-49
2022/11/19 05:27:37;;;;;;;3.60;1.20;;;;;;;2.83;71.67;99184.92;1762130;80;21042;-48
2022/11/19 05:30:06;;;;;;;3.55;1.40;;;;;;;2.80;71.87;99192.44;1766519;80;21187;-52
2022/11/19 05:32:35;;;;;;;3.62;1.30;;;;;;;2.78;72.03;99187.34;1776608;79;21049;-48
2022/11/19 05:35:04;;;;;;;4.67;1.60;;;;;;;2.74;72.09;99191.09;1771275;79;21050;-48
2022/11/19 05:37:31;;;;;;;4.85;1.60;;;;;;;2.70;72.19;99192.21;1762043;80;21097;-47
2022/11/19 05:39:57;;;;;;;4.05;1.50;;;;;;;2.68;72.24;99199.76;1771163;79;21109;-48
2022/11/19 05:42:24;;;;;;;3.05;1.00;;;;;;;2.70;72.15;99193.52;1759817;80;21102;-48
2022/11/19 05:44:50;;;;;;;3.40;1.12;;;;;;;2.72;72.20;99195.56;1778473;79;20983;-48
2022/11/19 05:47:17;;;;;;;5.72;3.02;;;;;;;2.74;72.29;99195.44;1772873;79;21059;-46
2022/11/19 05:49:43;;;;;;;5.40;1.60;;;;;;;2.72;72.50;99212.45;1771424;79;20999;-49
2022/11/19 05:52:10;;;;;;;4.75;1.70;;;;;;;2.69;72.68;99200.95;1773072;79;21050;-47
2022/11/19 05:54:37;;;;;;;4.15;1.60;;;;;;;2.63;72.83;99202.66;1775042;79;21258;-48
2022/11/19 05:57:04;;;;;;;4.37;1.75;;;;;;;2.57;72.83;99205.20;1777041;79;21017;-48
2022/11/19 05:59:31;;;;;;;4.37;1.85;;;;;;;2.60;72.87;99209.34;1772557;79;21074;-48
2022/11/19 06:01:58;;;;;;;4.28;1.32;;;;;;;2.67;72.83;99213.19;1778068;79;21090;-48
2022/11/19 06:04:24;;;;;;;4.97;1.75;;;;;;;2.70;72.74;99212.99;1771826;79;21164;-49
2022/11/19 06:06:52;;;;;;;7.10;2.30;;;;;;;2.72;72.81;99211.59;1773657;79;21420;-50
2022/11/19 06:09:19;;;;;;;4.53;1.77;;;;;;;2.69;72.91;99212.64;1772836;79;21482;-50
2022/11/19 06:11:49;;;;;;;3.45;1.25;;;;;;;2.67;73.05;99220.16;1768262;79;21018;-48
2022/11/19 06:14:23;;;;;;;4.40;1.72;;;;;;;2.62;73.07;99217.03;1771416;80;21046;-48
2022/11/19 06:16:51;;;;;;;4.22;1.50;;;;;;;2.55;73.08;99220.50;1764493;79;21141;-50
2022/11/19 06:19:19;;;;;;;4.58;1.50;;;;;;;2.60;73.07;99228.82;1782842;79;20987;-48
2022/11/19 06:21:46;;;;;;;3.35;1.22;;;;;;;2.65;73.19;99228.53;1778935;79;21059;-48
2022/11/19 06:24:13;;;;;;;3.83;1.37;;;;;;;2.62;73.23;99232.14;1769392;79;21098;-48
2022/11/19 06:38:52;;;;;;;5.45;2.62;;;;;;;3.17;72.25;99251.03;1820029;77;22878;-48
2022/11/19 06:41:19;;;;;;;5.80;2.45;;;;;;;3.22;71.91;99255.45;1789335;78;20997;-48
2022/11/19 06:43:45;;;;;;;5.22;2.58;;;;;;;3.16;72.10;99258.01;1788753;78;22247;-48
2022/11/19 06:46:12;;;;;;;4.55;1.30;;;;;;;3.06;72.11;99258.27;1784967;78;20986;-47
2022/11/19 06:48:42;;;;;;;3.95;1.50;;;;;;;2.94;72.18;99266.86;1792410;78;20971;-47
2022/11/19 06:51:09;;;;;;;5.95;2.50;;;;;;;2.83;72.36;99263.69;1793467;78;21673;-47
2022/11/19 06:53:36;;;;;;;2.58;0.85;;;;;;;2.78;72.49;99266.58;1791160;78;21072;-48
2022/11/19 06:56:05;;;;;;;2.40;0.60;;;;;;;2.72;72.82;99259.66;1783430;78;21248;-49
2022/11/19 06:58:32;;;;;;;5.00;2.42;;;;;;;2.62;73.01;99275.00;1789225;78;21030;-48
2022/11/19 07:00:58;;;;;;;3.85;1.20;;;;;;;2.51;73.31;99274.88;1783426;78;21061;-48
2022/11/19 07:03:25;;;;;;;3.27;1.07;;;;;;;2.45;73.64;99272.19;1794742;78;20987;-47
2022/11/19 07:05:59;;;;;;;4.15;0.95;;;;;;;2.48;73.69;99277.19;1786917;78;21131;-48
2022/11/19 07:08:26;;;;;;;5.20;1.65;;;;;;;2.52;73.72;99281.72;1794969;78;21145;-48
2022/11/19 07:10:52;;;;;;;4.92;2.10;;;;;;;2.47;74.00;99275.55;1791127;78;22301;-48
2022/11/19 07:13:19;;;;;;;2.67;0.93;;;;;;;2.43;74.15;99278.43;1782219;78;21641;-49
2022/11/19 07:15:45;;;;;;;5.20;1.50;;;;;;;2.38;74.23;99283.44;1787122;78;21624;-49
2022/11/19 07:18:12;;;;;;;4.05;1.37;;;;;;;2.38;74.32;99285.20;1781461;78;21535;-48
2022/11/19 07:20:39;;;;;;;4.30;1.47;;;;;;;2.43;74.14;99292.71;1782295;78;21057;-48
2022/11/19 07:23:10;;;;;;;3.62;1.35;;;;;;;2.41;74.18;99293.63;1783629;78;21044;-49
2022/11/19 07:25:38;;;;;;;3.02;0.93;;;;;;;2.41;74.44;99296.70;1774062;78;21069;-48
2022/11/19 07:28:04;;;;;;;4.37;1.47;;;;;;;2.38;74.49;99305.50;1744809;80;21088;-48
2022/11/19 07:30:32;;;;;;;3.60;1.20;;;;;;;2.38;74.46;99307.27;1748767;80;21070;-47
2022/11/19 07:32:59;;;;;;;4.22;1.35;;;;;;;2.41;74.31;99305.31;1745460;80;21123;-47
2022/11/19 07:35:27;;;;;;;3.92;1.17;;;;;;;2.44;74.19;99304.30;1748041;80;21117;-48
2022/11/19 07:37:54;;;;;;;3.20;1.20;;;;;;;2.42;74.33;99306.13;1749894;80;21528;-48
2022/11/19 07:40:20;;;;;;;5.00;1.20;;;;;;;2.37;74.41;99315.53;1727166;81;21091;-48
2022/11/19 07:42:48;;;;;;;5.87;1.90;;;;;;;2.35;74.68;99318.67;1753518;80;21061;-50
2022/11/19 07:45:18;;;;;;;5.33;1.70;;;;;;;2.36;74.70;99311.73;1753409;80;21398;-48
2022/11/19 07:47:44;;;;;;;5.05;1.60;;;;;;;2.45;74.44;99320.70;1747157;80;21049;-48
2022/11/19 07:50:13;;;;;;;5.10;1.55;;;;;;;2.48;74.35;99320.03;1744517;80;21145;-52
2022/11/19 07:52:39;;;;;;;4.42;1.92;;;;;;;2.51;74.39;99324.22;1741449;80;21063;-48
2022/11/19 07:55:07;;;;;;;5.15;1.40;;;;;;;2.52;74.33;99325.86;1719923;81;21055;-48
2022/11/19 07:57:34;;;;;;;4.90;1.92;;;;;;;2.48;74.23;99334.32;1723346;81;21300;-48
2022/11/19 08:00:04;;;;;;;5.08;1.82;;;;;;;2.46;74.22;99334.06;1723251;81;21026;-47
2022/11/19 08:02:33;;;;;;;4.72;1.85;;;;;;;2.56;74.14;99337.27;1720792;81;21591;-50
2022/11/19 08:04:59;;;;;;;7.95;1.92;;;;;;;2.60;74.00;99336.60;1722361;81;21090;-47
2022/11/19 08:07:26;;;;;;;4.00;1.62;;;;;;;2.61;73.86;99338.28;1725123;81;21104;-48
2022/11/19 08:09:52;;;;;;;7.65;4.50;;;;;;;2.55;73.90;99338.19;1726315;81;21266;-49
2022/11/19 08:12:19;;;;;;;6.00;2.22;;;;;;;2.51;73.82;99337.20;1716301;81;21073;-48
2022/11/19 08:14:46;;;;;;;5.03;2.00;;;;;;;2.54;73.75;99342.17;1726769;81;21078;-48
2022/11/19 08:19:57;;;;;;;7.35;3.00;;;;;;;2.56;73.65;99366.30;1722881;81;21082;-48
2022/11/19 08:22:23;;;;;;;5.72;2.92;;;;;;;2.52;73.59;99368.71;1725393;81;21945;-49
2022/11/19 08:24:50;;;;;;;9.00;3.27;;;;;;;2.48;73.53;99369.37;1722026;81;21544;-49
2022/11/19 08:27:17;;;;;;;7.25;3.37;;;;;;;2.49;73.61;99371.50;1730387;81;21345;-49
2022/11/19 08:29:44;;;;;;;8.73;4.12;;;;;;;2.53;73.37;99371.69;1723433;81;21665;-47
2022/11/19 08:32:12;;;;;;;7.22;3.62;;;;;;;2.54;73.19;99369.44;1746552;80;21034;-47
2022/11/19 08:34:39;;;;;;;9.13;3.52;;;;;;;2.51;73.24;99380.05;1719753;81;21152;-48
2022/11/19 08:37:06;;;;;;;8.38;2.95;;;;;;;2.45;73.48;99379.95;1720130;81;21351;-49
2022/11/19 08:39:33;;;;;;;8.25;3.72;;;;;;;2.45;73.64;99394.23;1757365;80;21157;-49
2022/11/19 08:43:00;;;;;;;7.08;2.77;;;;;;;2.52;73.54;99399.43;1717912;81;21089;-57
2022/11/19 08:44:38;;;;;;;6.75;3.72;;;;;;;2.60;73.43;99409.32;1706155;80;21145;-58
2022/11/19 08:47:04;;;;;;;7.90;3.90;;;;;;;2.59;73.44;99421.95;1747689;80;21273;-56
2022/11/19 08:49:31;;;;;;;9.05;3.90;;;;;;;2.57;73.14;99425.09;1743298;80;21114;-59
2022/11/19 08:51:57;;;;;;;8.05;4.03;;;;;;;2.57;73.14;99423.80;1726070;81;21366;-56
2022/11/19 08:54:24;;;;;;;9.55;4.50;;;;;;;2.67;73.04;99431.85;1728206;81;21121;-58
2022/11/19 08:56:51;;;;;;;7.17;3.62;;;;;;;2.67;72.95;99435.27;1742583;80;21112;-57
2022/11/19 08:59:20;;;;;;;9.43;3.42;;;;;;;2.64;72.86;99439.39;1732994;80;21377;-56
2022/11/19 09:01:48;;;;;;;5.95;2.70;;;;;;;2.59;72.80;99441.44;1705549;81;21504;-57
2022/11/19 09:04:15;;;;;;;8.65;2.80;;;;;;;2.56;72.50;99445.52;1716941;81;21725;-57
2022/11/19 09:06:44;;;;;;;6.70;3.25;;;;;;;2.60;72.30;99459.49;1736391;81;21023;-57
2022/11/19 09:09:10;;;;;;;5.70;2.80;;;;;;;2.58;72.11;99460.53;1737738;80;21623;-56
2022/11/19 09:11:38;;;;;;;6.05;2.52;;;;;;;2.57;71.92;99461.45;1736893;80;21741;-57
2022/11/19 09:14:05;;;;;;;5.35;2.45;;;;;;;2.54;71.88;99470.28;1744826;80;21018;-56
2022/11/19 09:16:31;;;;;;;7.62;2.17;;;;;;;2.55;71.97;99477.13;1735253;80;21654;-56
2022/11/19 09:19:01;;;;;;;6.15;2.83;;;;;;;2.65;71.86;99481.30;1745829;80;21746;-58
2022/11/19 09:21:28;;;;;;;5.50;2.25;;;;;;;2.73;71.84;99479.53;1746498;80;21081;-57
2022/11/19 09:23:54;;;;;;;7.58;2.33;;;;;;;2.76;71.48;99480.65;1744160;80;21310;-58
2022/11/19 09:26:22;;;;;;;5.40;2.35;;;;;;;2.76;71.44;99486.67;1744613;80;21117;-57
2022/11/19 09:28:49;;;;;;;7.85;2.75;;;;;;;2.76;71.53;99485.84;1740485;80;21081;-58
2022/11/19 09:31:18;;;;;;;6.62;3.15;;;;;;;2.81;71.18;99489.44;1742685;80;21136;-57
2022/11/19 09:33:48;;;;;;;6.75;2.70;;;;;;;2.81;70.87;99495.48;1737627;80;21607;-57
2022/11/19 09:36:17;;;;;;;9.05;6.00;;;;;;;2.75;70.91;99495.38;1728691;81;21052;-56
2022/11/19 09:38:44;;;;;;;7.12;3.22;;;;;;;2.72;70.99;99502.09;1729309;81;21026;-57
2022/11/19 09:41:26;;;;;;;7.28;2.85;;;;;;;2.71;70.93;99506.91;1727162;80;21129;-57
2022/11/19 09:44:19;;;;;;;7.37;2.70;;;;;;;2.71;70.59;99514.70;1736454;81;22466;-57
2022/11/19 09:47:01;;;;;;;5.92;3.05;;;;;;;2.82;70.63;99533.51;1724140;81;21100;-58
2022/11/19 09:49:56;;;;;;;7.05;3.10;;;;;;;2.86;70.50;99535.01;1729020;81;21235;-59
2022/11/19 09:52:23;;;;;;;7.87;3.60;;;;;;;2.90;70.52;99533.05;1727778;81;21140;-56
2022/11/19 09:54:52;;;;;;;8.98;3.83;;;;;;;2.92;70.46;99533.31;1680839;81;21124;-58
2022/11/19 09:57:50;;;;;;;8.60;4.25;;;;;;;2.93;70.37;99528.97;1727334;81;21453;-60
2022/11/19 10:00:21;;;;;;;7.50;3.58;;;;;;;2.94;70.28;99523.68;1743130;80;21081;-57
2022/11/19 10:02:48;;;;;;;7.85;4.15;;;;;;;3.02;69.79;99521.06;1709362;81;21116;-59
2022/11/19 10:05:20;;;;;;;12.60;4.83;;;;;;;3.05;68.58;99525.59;1742223;80;21049;-59
2022/11/19 10:07:58;;;;;;;9.30;4.47;;;;;;;3.02;68.68;99533.58;1713780;80;21152;-58
2022/11/19 10:10:50;;;;;;;8.70;4.30;;;;;;;2.95;68.63;99540.09;1746813;80;21050;-58
2022/11/19 10:13:58;;;;;;;9.13;4.33;;;;;;;2.90;68.68;99548.64;1715618;81;21137;-58
2022/11/19 10:16:38;;;;;;;9.50;4.70;;;;;;;2.89;68.88;99552.16;1723931;81;22865;-56
2022/11/19 10:19:22;;;;;;;9.88;3.67;;;;;;;2.96;69.05;99554.30;1727729;81;21741;-56
2022/11/19 10:22:07;;;;;;;9.00;4.20;;;;;;;3.04;69.30;99557.70;1666664;82;21066;-57
2022/11/19 10:25:06;;;;;;;10.93;5.95;;;;;;;3.06;68.84;99557.16;1727145;81;21097;-57
2022/11/19 10:27:38;;;;;;;10.18;4.45;;;;;;;3.04;69.01;99562.08;1728723;81;21558;-58
2022/11/19 10:30:14;;;;;;;8.08;4.28;;;;;;;3.01;69.31;99565.72;1732352;81;21383;-58
2022/11/19 10:32:54;;;;;;;8.95;4.42;;;;;;;3.03;69.59;99568.22;1706012;82;21090;-57
2022/11/19 10:35:26;;;;;;;8.90;3.47;;;;;;;3.12;68.98;99578.03;1732258;81;21076;-58
2022/11/19 10:38:00;;;;;;;7.83;4.45;;;;;;;3.24;68.69;99588.14;1733271;81;21648;-58
2022/11/19 10:40:40;;;;;;;10.38;5.78;;;;;;;3.25;68.07;99577.64;1728314;81;21115;-58
2022/11/19 10:43:35;;;;;;;8.43;3.77;;;;;;;3.27;67.66;99580.15;1704171;82;21320;-59
2022/11/19 10:46:03;;;;;;;7.90;4.33;;;;;;;3.26;67.29;99596.22;1708865;82;21093;-57
2022/11/19 10:48:40;;;;;;;9.00;4.15;;;;;;;3.21;67.75;99601.31;1719489;81;21559;-57
2022/11/19 10:51:29;;;;;;;8.53;4.42;;;;;;;3.23;67.58;99608.55;1721306;81;21077;-60
2022/11/19 10:53:56;;;;;;;9.90;4.70;;;;;;;3.29;67.35;99614.69;1719339;82;21255;-63
2022/11/19 10:56:38;;;;;;;10.15;5.10;;;;;;;3.27;67.45;99610.05;1723100;81;21162;-59
2022/11/19 10:59:21;;;;;;;8.63;4.35;;;;;;;3.24;67.74;99611.53;1720524;81;21107;-59
2022/11/19 11:01:59;;;;;;;7.92;3.90;;;;;;;3.21;67.78;99633.38;1709128;82;21015;-57
2022/11/19 11:04:27;;;;;;;8.03;3.72;;;;;;;3.06;67.90;99650.73;1711966;81;21180;-57
2022/11/19 11:07:03;;;;;;;6.97;3.25;;;;;;;2.92;68.13;99656.75;1714449;81;21595;-57
2022/11/19 11:09:41;;;;;;;7.92;4.25;;;;;;;2.84;68.36;99662.03;1719786;81;21484;-57
2022/11/19 11:15:20;;;;;;;9.78;3.95;;;;;;;2.85;67.87;99675.41;1709768;81;21062;-59
2022/11/19 11:18:01;;;;;;;8.75;4.17;;;;;;;2.79;68.25;99683.08;1716411;81;22546;-60
2022/11/19 11:20:27;;;;;;;9.53;3.85;;;;;;;2.76;68.45;99702.30;1711003;81;21077;-57
2022/11/19 11:23:10;;;;;;;7.87;4.05;;;;;;;2.70;68.66;99715.64;1713216;81;22174;-58
2022/11/19 11:25:38;;;;;;;9.03;3.65;;;;;;;2.63;68.98;99722.59;1697761;81;21697;-58
2022/11/19 11:28:16;;;;;;;6.62;3.00;;;;;;;2.60;68.86;99719.23;1723030;81;21578;-59
2022/11/19 11:30:53;;;;;;;8.78;3.77;;;;;;;2.60;67.13;99719.23;1715649;81;21086;-58
2022/11/19 11:33:33;;;;;;;6.85;3.62;;;;;;;2.65;67.30;99729.83;1710037;81;21100;-59
2022/11/19 11:36:14;;;;;;;7.60;3.95;;;;;;;2.56;66.70;99722.11;1727576;81;21575;-60
2022/11/19 11:38:47;;;;;;;9.00;3.95;;;;;;;2.51;67.28;99718.47;1725465;79;21065;-58
2022/11/19 11:41:20;;;;;;;7.17;2.98;;;;;;;2.48;67.55;99733.39;1742097;80;21042;-56
2022/11/19 11:44:07;;;;;;;8.43;3.05;;;;;;;2.53;67.57;99745.19;1702315;81;21038;-58
2022/11/19 11:46:47;;;;;;;5.92;3.25;;;;;;;2.52;67.62;99755.66;1656614;84;21113;-59
2022/11/19 11:49:35;;;;;;;7.60;4.25;;;;;;;2.44;67.85;99768.23;1710217;81;21216;-56
2022/11/19 11:52:18;;;;;;;8.90;3.98;;;;;;;2.32;68.45;99778.41;1707725;82;21112;-59
2022/11/19 11:55:03;;;;;;;8.70;3.22;;;;;;;2.30;68.65;99791.91;1722570;81;21117;-59
2022/11/19 11:57:36;;;;;;;10.48;3.87;;;;;;;2.33;68.29;99798.70;1719443;81;21527;-59
2022/11/19 12:00:37;;;;;;;9.10;3.72;;;;;;;2.39;67.75;99800.50;1727666;81;21088;-59
2022/11/19 12:03:13;;;;;;;7.53;3.85;;;;;;;2.47;67.87;99808.32;1728101;81;21150;-58
2022/11/19 12:06:00;;;;;;;8.85;4.33;;;;;;;2.42;67.37;99833.23;1724326;81;21065;-60
2022/11/19 12:08:39;;;;;;;8.58;4.08;;;;;;;2.34;67.49;99840.64;1728845;81;21125;-59
2022/11/19 12:11:27;;;;;;;7.03;3.22;;;;;;;2.25;67.86;99846.31;1727513;81;21136;-46
2022/11/19 12:14:06;;;;;;;9.90;3.83;;;;;;;2.22;67.84;99858.55;1734168;81;21087;-47
2022/11/19 12:16:43;;;;;;;6.90;3.15;;;;;;;2.18;68.12;99858.78;1724472;81;22333;-48
2022/11/19 12:19:27;;;;;;;6.97;3.27;;;;;;;2.28;67.98;99866.45;1719397;81;21133;-47
2022/11/19 12:22:30;;;;;;;8.03;3.15;;;;;;;2.28;67.98;99866.45;1731886;81;21149;-48
2022/11/19 12:25:13;;;;;;;9.23;3.72;;;;;;;2.24;67.73;99877.94;1696111;82;21043;-47
2022/11/19 12:28:00;;;;;;;8.08;3.02;;;;;;;2.09;67.85;99882.18;1729497;81;21081;-47
2022/11/19 12:30:33;;;;;;;;;;;;;;;2.00;68.10;99900.38;1726117;81;21246;-47
2022/11/19 12:33:28;;;;;;;7.45;3.45;;;;;;;1.93;68.19;99908.08;1725591;81;20218;-48
2022/11/19 12:36:40;;;;;;;6.65;2.47;;;;;;;1.85;68.00;99925.83;1721800;81;21057;-48